sensor_id;sensor_type;location;lat;lon;timestamp;P1;durP1;ratioP1;P2;durP2;ratioP2
13807;SDS011;40769;51.512;5.494;2022-10-26T00:00:04;2.70;;;2.50;;
13807;SDS011;40769;51.512;5.494;2022-10-26T00:02:31;2.80;;;2.58;;
13807;SDS011;40769;51.512;5.494;2022-10-26T00:04:57;3.53;;;3.22;;
13807;SDS011;40769;51.512;5.494;2022-10-26T00:07:22;3.70;;;2.92;;
13807;SDS011;40769;51.512;5.494;2022-10-26T00:09:48;3.47;;;2.88;;
13807;SDS011;40769;51.512;5.494;2022-10-26T00:12:13;3.85;;;3.33;;
13807;SDS011;40769;51.512;5.494;2022-10-26T00:14:39;3.85;;;2.95;;
13807;SDS011;40769;51.512;5.494;2022-10-26T00:17:05;2.42;;;2.20;;
13807;SDS011;40769;51.512;5.494;2022-10-26T00:19:33;2.53;;;2.33;;
13807;SDS011;40769;51.512;5.494;2022-10-26T00:21:59;2.40;;;2.20;;
13807;SDS011;40769;51.512;5.494;2022-10-26T00:24:25;2.40;;;2.20;;
13807;SDS011;40769;51.512;5.494;2022-10-26T00:26:50;3.08;;;2.70;;
13807;SDS011;40769;51.512;5.494;2022-10-26T00:29:16;3.85;;;2.47;;
13807;SDS011;40769;51.512;5.494;2022-10-26T00:31:42;2.88;;;2.67;;
13807;SDS011;40769;51.512;5.494;2022-10-26T00:34:10;3.10;;;2.80;;
13807;SDS011;40769;51.512;5.494;2022-10-26T00:36:36;2.72;;;2.53;;
13807;SDS011;40769;51.512;5.494;2022-10-26T00:39:02;2.38;;;2.17;;
13807;SDS011;40769;51.512;5.494;2022-10-26T00:41:29;2.80;;;2.40;;
13807;SDS011;40769;51.512;5.494;2022-10-26T00:43:56;2.65;;;2.40;;
13807;SDS011;40769;51.512;5.494;2022-10-26T00:46:28;2.47;;;2.05;;
13807;SDS011;40769;51.512;5.494;2022-10-26T00:48:58;2.28;;;2.08;;
13807;SDS011;40769;51.512;5.494;2022-10-26T00:51:32;2.30;;;2.10;;
13807;SDS011;40769;51.512;5.494;2022-10-26T00:54:05;2.55;;;2.35;;
13807;SDS011;40769;51.512;5.494;2022-10-26T00:56:34;2.80;;;2.58;;
13807;SDS011;40769;51.512;5.494;2022-10-26T00:59:02;3.33;;;3.03;;
13807;SDS011;40769;51.512;5.494;2022-10-26T01:01:30;3.00;;;2.70;;
13807;SDS011;40769;51.512;5.494;2022-10-26T01:03:59;2.65;;;2.45;;
13807;SDS011;40769;51.512;5.494;2022-10-26T01:06:29;2.85;;;2.65;;
13807;SDS011;40769;51.512;5.494;2022-10-26T01:08:56;2.85;;;2.60;;
13807;SDS011;40769;51.512;5.494;2022-10-26T01:11:21;3.53;;;3.22;;
13807;SDS011;40769;51.512;5.494;2022-10-26T01:13:47;2.90;;;2.60;;
13807;SDS011;40769;51.512;5.494;2022-10-26T01:32:56;5.20;;;3.63;;
13807;SDS011;40769;51.512;5.494;2022-10-26T01:35:32;3.92;;;3.63;;
13807;SDS011;40769;51.512;5.494;2022-10-26T01:40:53;3.53;;;2.72;;
13807;SDS011;40769;51.512;5.494;2022-10-26T01:43:35;2.95;;;2.65;;
13807;SDS011;40769;51.512;5.494;2022-10-26T01:46:03;2.95;;;2.65;;
13807;SDS011;40769;51.512;5.494;2022-10-26T01:48:31;3.17;;;2.92;;
13807;SDS011;40769;51.512;5.494;2022-10-26T01:50:58;2.90;;;2.55;;
13807;SDS011;40769;51.512;5.494;2022-10-26T01:53:25;4.50;;;3.35;;
13807;SDS011;40769;51.512;5.494;2022-10-26T01:55:52;4.10;;;3.03;;
13807;SDS011;40769;51.512;5.494;2022-10-26T02:04:32;2.17;;;2.00;;
13807;SDS011;40769;51.512;5.494;2022-10-26T02:07:29;2.83;;;2.63;;
13807;SDS011;40769;51.512;5.494;2022-10-26T02:10:05;3.08;;;2.85;;
13807;SDS011;40769;51.512;5.494;2022-10-26T02:15:47;2.58;;;2.38;;
13807;SDS011;40769;51.512;5.494;2022-10-26T02:18:53;3.13;;;2.17;;
13807;SDS011;40769;51.512;5.494;2022-10-26T02:21:43;2.83;;;2.63;;
13807;SDS011;40769;51.512;5.494;2022-10-26T02:24:13;3.80;;;3.50;;
13807;SDS011;40769;51.512;5.494;2022-10-26T02:26:41;3.30;;;3.00;;
13807;SDS011;40769;51.512;5.494;2022-10-26T02:29:11;3.75;;;2.50;;
13807;SDS011;40769;51.512;5.494;2022-10-26T02:31:41;2.47;;;2.28;;
13807;SDS011;40769;51.512;5.494;2022-10-26T02:34:08;2.42;;;1.92;;
13807;SDS011;40769;51.512;5.494;2022-10-26T02:36:38;3.28;;;2.85;;
13807;SDS011;40769;51.512;5.494;2022-10-26T02:39:06;3.58;;;2.80;;
13807;SDS011;40769;51.512;5.494;2022-10-26T02:41:34;3.50;;;3.20;;
13807;SDS011;40769;51.512;5.494;2022-10-26T02:46:45;3.13;;;2.63;;
13807;SDS011;40769;51.512;5.494;2022-10-26T02:49:11;2.38;;;2.20;;
13807;SDS011;40769;51.512;5.494;2022-10-26T02:56:44;2.78;;;2.50;;
13807;SDS011;40769;51.512;5.494;2022-10-26T02:59:11;3.00;;;2.63;;
13807;SDS011;40769;51.512;5.494;2022-10-26T03:01:39;2.78;;;2.50;;
13807;SDS011;40769;51.512;5.494;2022-10-26T03:04:06;2.47;;;2.10;;
13807;SDS011;40769;51.512;5.494;2022-10-26T03:06:34;2.22;;;2.00;;
13807;SDS011;40769;51.512;5.494;2022-10-26T03:09:00;2.45;;;1.70;;
13807;SDS011;40769;51.512;5.494;2022-10-26T03:11:25;2.10;;;1.88;;
13807;SDS011;40769;51.512;5.494;2022-10-26T03:13:51;1.95;;;1.77;;
13807;SDS011;40769;51.512;5.494;2022-10-26T03:16:17;3.78;;;1.80;;
13807;SDS011;40769;51.512;5.494;2022-10-26T03:18:42;3.45;;;1.85;;
13807;SDS011;40769;51.512;5.494;2022-10-26T03:21:08;1.90;;;1.80;;
13807;SDS011;40769;51.512;5.494;2022-10-26T03:23:33;2.88;;;2.45;;
13807;SDS011;40769;51.512;5.494;2022-10-26T03:25:59;2.15;;;1.95;;
13807;SDS011;40769;51.512;5.494;2022-10-26T03:28:25;2.47;;;1.98;;
13807;SDS011;40769;51.512;5.494;2022-10-26T03:30:51;2.30;;;2.10;;
13807;SDS011;40769;51.512;5.494;2022-10-26T03:33:16;1.80;;;1.70;;
13807;SDS011;40769;51.512;5.494;2022-10-26T03:35:42;4.18;;;2.20;;
13807;SDS011;40769;51.512;5.494;2022-10-26T03:38:07;2.60;;;2.00;;
13807;SDS011;40769;51.512;5.494;2022-10-26T03:40:34;2.17;;;2.00;;
13807;SDS011;40769;51.512;5.494;2022-10-26T03:43:00;2.63;;;2.13;;
13807;SDS011;40769;51.512;5.494;2022-10-26T03:45:26;3.67;;;2.50;;
13807;SDS011;40769;51.512;5.494;2022-10-26T03:47:52;2.83;;;2.00;;
13807;SDS011;40769;51.512;5.494;2022-10-26T03:50:18;3.00;;;2.17;;
13807;SDS011;40769;51.512;5.494;2022-10-26T03:52:45;2.45;;;2.10;;
13807;SDS011;40769;51.512;5.494;2022-10-26T03:55:12;1.83;;;1.70;;
13807;SDS011;40769;51.512;5.494;2022-10-26T03:57:41;2.00;;;1.80;;
13807;SDS011;40769;51.512;5.494;2022-10-26T04:00:08;2.03;;;1.65;;
13807;SDS011;40769;51.512;5.494;2022-10-26T04:02:35;3.08;;;2.13;;
13807;SDS011;40769;51.512;5.494;2022-10-26T04:05:01;2.42;;;1.80;;
13807;SDS011;40769;51.512;5.494;2022-10-26T04:07:27;4.32;;;2.55;;
13807;SDS011;40769;51.512;5.494;2022-10-26T04:09:52;3.03;;;2.22;;
13807;SDS011;40769;51.512;5.494;2022-10-26T04:12:18;1.85;;;1.65;;
13807;SDS011;40769;51.512;5.494;2022-10-26T04:14:43;1.88;;;1.70;;
13807;SDS011;40769;51.512;5.494;2022-10-26T04:17:09;1.40;;;1.30;;
13807;SDS011;40769;51.512;5.494;2022-10-26T04:19:34;2.88;;;1.75;;
13807;SDS011;40769;51.512;5.494;2022-10-26T04:22:00;1.98;;;1.70;;
13807;SDS011;40769;51.512;5.494;2022-10-26T04:24:25;2.00;;;1.80;;
13807;SDS011;40769;51.512;5.494;2022-10-26T04:26:51;1.50;;;1.40;;
13807;SDS011;40769;51.512;5.494;2022-10-26T04:29:19;2.20;;;2.05;;
13807;SDS011;40769;51.512;5.494;2022-10-26T04:31:45;1.70;;;1.60;;
13807;SDS011;40769;51.512;5.494;2022-10-26T04:34:11;1.70;;;1.50;;
13807;SDS011;40769;51.512;5.494;2022-10-26T04:36:36;1.70;;;1.55;;
13807;SDS011;40769;51.512;5.494;2022-10-26T04:39:02;1.90;;;1.70;;
13807;SDS011;40769;51.512;5.494;2022-10-26T04:41:28;1.80;;;1.58;;
13807;SDS011;40769;51.512;5.494;2022-10-26T04:43:53;2.20;;;1.70;;
13807;SDS011;40769;51.512;5.494;2022-10-26T04:46:19;2.47;;;1.75;;
13807;SDS011;40769;51.512;5.494;2022-10-26T04:48:46;1.42;;;1.25;;
13807;SDS011;40769;51.512;5.494;2022-10-26T04:51:12;2.10;;;1.63;;
13807;SDS011;40769;51.512;5.494;2022-10-26T04:53:38;2.67;;;1.77;;
13807;SDS011;40769;51.512;5.494;2022-10-26T04:56:03;2.00;;;1.80;;
13807;SDS011;40769;51.512;5.494;2022-10-26T04:58:29;3.30;;;2.08;;
13807;SDS011;40769;51.512;5.494;2022-10-26T05:00:55;1.83;;;1.50;;
13807;SDS011;40769;51.512;5.494;2022-10-26T05:03:21;2.25;;;2.03;;
13807;SDS011;40769;51.512;5.494;2022-10-26T05:05:46;1.33;;;1.23;;
13807;SDS011;40769;51.512;5.494;2022-10-26T05:08:12;1.85;;;1.35;;
13807;SDS011;40769;51.512;5.494;2022-10-26T05:10:38;1.63;;;1.45;;
13807;SDS011;40769;51.512;5.494;2022-10-26T05:13:04;2.00;;;1.48;;
13807;SDS011;40769;51.512;5.494;2022-10-26T05:15:30;1.95;;;1.45;;
13807;SDS011;40769;51.512;5.494;2022-10-26T05:17:56;1.70;;;1.60;;
13807;SDS011;40769;51.512;5.494;2022-10-26T05:20:28;2.60;;;1.90;;
13807;SDS011;40769;51.512;5.494;2022-10-26T05:22:59;2.78;;;2.20;;
13807;SDS011;40769;51.512;5.494;2022-10-26T05:25:27;2.25;;;1.92;;
13807;SDS011;40769;51.512;5.494;2022-10-26T05:27:58;1.40;;;1.30;;
13807;SDS011;40769;51.512;5.494;2022-10-26T05:30:24;3.25;;;1.85;;
13807;SDS011;40769;51.512;5.494;2022-10-26T05:32:54;3.42;;;2.28;;
13807;SDS011;40769;51.512;5.494;2022-10-26T05:35:20;3.28;;;2.03;;
13807;SDS011;40769;51.512;5.494;2022-10-26T05:37:46;2.28;;;1.55;;
13807;SDS011;40769;51.512;5.494;2022-10-26T05:40:11;1.67;;;1.50;;
13807;SDS011;40769;51.512;5.494;2022-10-26T05:42:37;1.75;;;1.63;;
13807;SDS011;40769;51.512;5.494;2022-10-26T05:45:03;1.73;;;1.27;;
13807;SDS011;40769;51.512;5.494;2022-10-26T05:47:28;2.03;;;1.50;;
13807;SDS011;40769;51.512;5.494;2022-10-26T05:49:54;2.75;;;1.55;;
13807;SDS011;40769;51.512;5.494;2022-10-26T05:52:22;2.97;;;1.83;;
13807;SDS011;40769;51.512;5.494;2022-10-26T05:54:47;2.25;;;1.65;;
13807;SDS011;40769;51.512;5.494;2022-10-26T05:57:13;1.70;;;1.48;;
13807;SDS011;40769;51.512;5.494;2022-10-26T05:59:39;3.25;;;1.80;;
13807;SDS011;40769;51.512;5.494;2022-10-26T06:07:02;1.55;;;1.20;;
13807;SDS011;40769;51.512;5.494;2022-10-26T06:09:38;1.38;;;1.27;;
13807;SDS011;40769;51.512;5.494;2022-10-26T06:12:05;1.95;;;1.38;;
13807;SDS011;40769;51.512;5.494;2022-10-26T06:14:32;3.38;;;1.80;;
13807;SDS011;40769;51.512;5.494;2022-10-26T06:25:36;3.30;;;1.90;;
13807;SDS011;40769;51.512;5.494;2022-10-26T06:30:46;3.45;;;1.60;;
13807;SDS011;40769;51.512;5.494;2022-10-26T06:33:12;2.88;;;1.40;;
13807;SDS011;40769;51.512;5.494;2022-10-26T06:38:12;1.40;;;1.17;;
13807;SDS011;40769;51.512;5.494;2022-10-26T06:40:41;2.75;;;1.80;;
13807;SDS011;40769;51.512;5.494;2022-10-26T06:43:16;2.25;;;1.35;;
13807;SDS011;40769;51.512;5.494;2022-10-26T06:52:04;3.45;;;1.40;;
13807;SDS011;40769;51.512;5.494;2022-10-26T06:57:15;2.90;;;1.52;;
13807;SDS011;40769;51.512;5.494;2022-10-26T06:59:44;1.67;;;1.58;;
13807;SDS011;40769;51.512;5.494;2022-10-26T07:02:11;3.13;;;2.08;;
13807;SDS011;40769;51.512;5.494;2022-10-26T07:04:38;1.98;;;1.73;;
13807;SDS011;40769;51.512;5.494;2022-10-26T07:07:04;1.90;;;1.55;;
13807;SDS011;40769;51.512;5.494;2022-10-26T07:09:30;1.60;;;1.50;;
13807;SDS011;40769;51.512;5.494;2022-10-26T07:11:55;1.73;;;1.60;;
13807;SDS011;40769;51.512;5.494;2022-10-26T07:14:21;2.00;;;1.58;;
13807;SDS011;40769;51.512;5.494;2022-10-26T07:16:46;2.58;;;1.48;;
13807;SDS011;40769;51.512;5.494;2022-10-26T07:19:12;2.45;;;1.65;;
13807;SDS011;40769;51.512;5.494;2022-10-26T07:21:38;2.38;;;1.70;;
13807;SDS011;40769;51.512;5.494;2022-10-26T07:24:03;2.67;;;1.70;;
13807;SDS011;40769;51.512;5.494;2022-10-26T07:26:29;1.60;;;1.30;;
13807;SDS011;40769;51.512;5.494;2022-10-26T07:28:55;1.60;;;1.30;;
13807;SDS011;40769;51.512;5.494;2022-10-26T07:31:20;1.88;;;1.65;;
13807;SDS011;40769;51.512;5.494;2022-10-26T07:33:46;1.85;;;1.40;;
13807;SDS011;40769;51.512;5.494;2022-10-26T07:36:12;1.40;;;1.30;;
13807;SDS011;40769;51.512;5.494;2022-10-26T07:38:38;1.55;;;1.38;;
13807;SDS011;40769;51.512;5.494;2022-10-26T07:41:03;1.75;;;1.65;;
13807;SDS011;40769;51.512;5.494;2022-10-26T07:43:30;1.92;;;1.48;;
13807;SDS011;40769;51.512;5.494;2022-10-26T07:45:55;1.55;;;1.20;;
13807;SDS011;40769;51.512;5.494;2022-10-26T07:48:21;1.30;;;1.20;;
13807;SDS011;40769;51.512;5.494;2022-10-26T07:50:47;1.80;;;1.40;;
13807;SDS011;40769;51.512;5.494;2022-10-26T07:53:13;1.90;;;1.77;;
13807;SDS011;40769;51.512;5.494;2022-10-26T07:55:38;1.60;;;1.50;;
13807;SDS011;40769;51.512;5.494;2022-10-26T07:58:04;4.25;;;1.80;;
13807;SDS011;40769;51.512;5.494;2022-10-26T08:00:30;1.92;;;1.80;;
13807;SDS011;40769;51.512;5.494;2022-10-26T08:02:56;2.38;;;1.70;;
13807;SDS011;40769;51.512;5.494;2022-10-26T08:05:21;3.13;;;2.00;;
13807;SDS011;40769;51.512;5.494;2022-10-26T08:07:47;1.55;;;1.40;;
13807;SDS011;40769;51.512;5.494;2022-10-26T08:10:13;1.95;;;1.60;;
13807;SDS011;40769;51.512;5.494;2022-10-26T08:12:40;3.35;;;1.83;;
13807;SDS011;40769;51.512;5.494;2022-10-26T08:15:07;3.00;;;2.08;;
13807;SDS011;40769;51.512;5.494;2022-10-26T08:17:33;2.13;;;1.55;;
13807;SDS011;40769;51.512;5.494;2022-10-26T08:19:59;2.05;;;1.67;;
13807;SDS011;40769;51.512;5.494;2022-10-26T08:22:24;1.70;;;1.60;;
13807;SDS011;40769;51.512;5.494;2022-10-26T08:24:52;1.75;;;1.33;;
13807;SDS011;40769;51.512;5.494;2022-10-26T08:27:17;2.63;;;1.60;;
13807;SDS011;40769;51.512;5.494;2022-10-26T08:29:43;2.20;;;1.35;;
13807;SDS011;40769;51.512;5.494;2022-10-26T08:32:09;1.77;;;1.45;;
13807;SDS011;40769;51.512;5.494;2022-10-26T08:34:34;1.48;;;1.20;;
13807;SDS011;40769;51.512;5.494;2022-10-26T08:37:00;1.33;;;1.23;;
13807;SDS011;40769;51.512;5.494;2022-10-26T08:39:25;2.92;;;1.67;;
13807;SDS011;40769;51.512;5.494;2022-10-26T08:41:55;1.88;;;1.50;;
13807;SDS011;40769;51.512;5.494;2022-10-26T08:44:30;1.60;;;1.10;;
13807;SDS011;40769;51.512;5.494;2022-10-26T08:47:24;3.05;;;1.60;;
13807;SDS011;40769;51.512;5.494;2022-10-26T08:49:51;4.70;;;1.92;;
13807;SDS011;40769;51.512;5.494;2022-10-26T08:52:28;2.53;;;1.35;;
13807;SDS011;40769;51.512;5.494;2022-10-26T08:55:00;1.70;;;1.30;;
13807;SDS011;40769;51.512;5.494;2022-10-26T08:57:38;3.17;;;1.48;;
13807;SDS011;40769;51.512;5.494;2022-10-26T09:00:06;3.95;;;1.80;;
13807;SDS011;40769;51.512;5.494;2022-10-26T09:02:35;2.80;;;1.65;;
13807;SDS011;40769;51.512;5.494;2022-10-26T09:05:01;1.95;;;1.42;;
13807;SDS011;40769;51.512;5.494;2022-10-26T09:26:16;1.60;;;1.38;;
13807;SDS011;40769;51.512;5.494;2022-10-26T09:29:12;1.80;;;1.45;;
13807;SDS011;40769;51.512;5.494;2022-10-26T09:31:39;1.45;;;1.15;;
13807;SDS011;40769;51.512;5.494;2022-10-26T09:34:06;1.58;;;1.30;;
13807;SDS011;40769;51.512;5.494;2022-10-26T09:36:42;3.15;;;1.70;;
13807;SDS011;40769;51.512;5.494;2022-10-26T09:39:12;2.90;;;1.40;;
13807;SDS011;40769;51.512;5.494;2022-10-26T09:41:48;2.25;;;1.25;;
13807;SDS011;40769;51.512;5.494;2022-10-26T09:49:46;2.53;;;1.75;;
13807;SDS011;40769;51.512;5.494;2022-10-26T09:52:20;2.97;;;1.40;;
13807;SDS011;40769;51.512;5.494;2022-10-26T09:54:46;1.70;;;1.38;;
13807;SDS011;40769;51.512;5.494;2022-10-26T09:57:13;4.90;;;1.90;;
13807;SDS011;40769;51.512;5.494;2022-10-26T09:59:43;2.75;;;1.50;;
13807;SDS011;40769;51.512;5.494;2022-10-26T10:04:56;1.50;;;1.38;;
13807;SDS011;40769;51.512;5.494;2022-10-26T10:07:21;2.13;;;1.58;;
13807;SDS011;40769;51.512;5.494;2022-10-26T10:10:04;2.85;;;1.42;;
13807;SDS011;40769;51.512;5.494;2022-10-26T10:12:41;2.38;;;1.25;;
13807;SDS011;40769;51.512;5.494;2022-10-26T10:15:15;1.95;;;1.38;;
13807;SDS011;40769;51.512;5.494;2022-10-26T10:17:47;2.25;;;1.23;;
13807;SDS011;40769;51.512;5.494;2022-10-26T10:20:17;2.58;;;1.50;;
13807;SDS011;40769;51.512;5.494;2022-10-26T10:22:52;1.60;;;1.42;;
13807;SDS011;40769;51.512;5.494;2022-10-26T10:25:30;3.35;;;1.70;;
13807;SDS011;40769;51.512;5.494;2022-10-26T10:27:56;2.38;;;1.40;;
13807;SDS011;40769;51.512;5.494;2022-10-26T10:30:23;3.90;;;1.60;;
13807;SDS011;40769;51.512;5.494;2022-10-26T10:33:03;1.92;;;1.73;;
13807;SDS011;40769;51.512;5.494;2022-10-26T10:35:30;2.85;;;1.60;;
13807;SDS011;40769;51.512;5.494;2022-10-26T10:37:56;3.75;;;1.48;;
13807;SDS011;40769;51.512;5.494;2022-10-26T10:40:23;2.65;;;1.58;;
13807;SDS011;40769;51.512;5.494;2022-10-26T10:42:50;3.97;;;1.80;;
13807;SDS011;40769;51.512;5.494;2022-10-26T10:45:26;2.30;;;1.45;;
13807;SDS011;40769;51.512;5.494;2022-10-26T10:47:57;4.07;;;1.88;;
13807;SDS011;40769;51.512;5.494;2022-10-26T10:50:26;2.28;;;1.77;;
13807;SDS011;40769;51.512;5.494;2022-10-26T10:52:53;2.33;;;1.58;;
13807;SDS011;40769;51.512;5.494;2022-10-26T10:55:42;3.85;;;1.95;;
13807;SDS011;40769;51.512;5.494;2022-10-26T10:58:19;3.35;;;1.50;;
13807;SDS011;40769;51.512;5.494;2022-10-26T11:00:53;1.67;;;1.35;;
13807;SDS011;40769;51.512;5.494;2022-10-26T11:03:23;2.40;;;1.63;;
13807;SDS011;40769;51.512;5.494;2022-10-26T11:08:51;2.05;;;1.20;;
13807;SDS011;40769;51.512;5.494;2022-10-26T11:11:35;2.50;;;1.70;;
13807;SDS011;40769;51.512;5.494;2022-10-26T11:14:09;2.00;;;1.63;;
13807;SDS011;40769;51.512;5.494;2022-10-26T11:16:37;2.75;;;1.55;;
13807;SDS011;40769;51.512;5.494;2022-10-26T11:19:15;1.77;;;1.40;;
13807;SDS011;40769;51.512;5.494;2022-10-26T11:21:52;2.28;;;1.20;;
13807;SDS011;40769;51.512;5.494;2022-10-26T11:24:23;1.80;;;1.40;;
13807;SDS011;40769;51.512;5.494;2022-10-26T11:29:35;1.40;;;1.30;;
13807;SDS011;40769;51.512;5.494;2022-10-26T11:45:56;1.20;;;1.10;;
13807;SDS011;40769;51.512;5.494;2022-10-26T11:48:36;2.03;;;1.38;;
13807;SDS011;40769;51.512;5.494;2022-10-26T11:51:35;1.20;;;0.93;;
13807;SDS011;40769;51.512;5.494;2022-10-26T11:54:06;1.88;;;1.40;;
13807;SDS011;40769;51.512;5.494;2022-10-26T11:56:54;2.17;;;1.40;;
13807;SDS011;40769;51.512;5.494;2022-10-26T11:59:23;2.50;;;1.20;;
13807;SDS011;40769;51.512;5.494;2022-10-26T12:01:54;2.25;;;1.38;;
13807;SDS011;40769;51.512;5.494;2022-10-26T12:04:27;2.33;;;1.33;;
13807;SDS011;40769;51.512;5.494;2022-10-26T12:06:57;2.13;;;1.33;;
13807;SDS011;40769;51.512;5.494;2022-10-26T12:09:27;1.35;;;1.20;;
13807;SDS011;40769;51.512;5.494;2022-10-26T12:14:41;1.95;;;1.02;;
13807;SDS011;40769;51.512;5.494;2022-10-26T12:17:16;1.70;;;1.08;;
13807;SDS011;40769;51.512;5.494;2022-10-26T12:20:09;2.53;;;1.23;;
13807;SDS011;40769;51.512;5.494;2022-10-26T12:22:55;2.78;;;1.60;;
13807;SDS011;40769;51.512;5.494;2022-10-26T12:25:21;2.67;;;1.40;;
13807;SDS011;40769;51.512;5.494;2022-10-26T12:37:57;2.60;;;1.20;;
13807;SDS011;40769;51.512;5.494;2022-10-26T12:42:56;2.13;;;1.70;;
13807;SDS011;40769;51.512;5.494;2022-10-26T12:48:50;3.42;;;1.48;;
13807;SDS011;40769;51.512;5.494;2022-10-26T13:08:01;2.08;;;1.33;;
13807;SDS011;40769;51.512;5.494;2022-10-26T13:10:29;1.83;;;1.30;;
13807;SDS011;40769;51.512;5.494;2022-10-26T13:12:56;1.65;;;1.20;;
13807;SDS011;40769;51.512;5.494;2022-10-26T13:15:30;3.22;;;1.40;;
13807;SDS011;40769;51.512;5.494;2022-10-26T13:18:18;2.22;;;1.15;;
13807;SDS011;40769;51.512;5.494;2022-10-26T13:20:52;2.83;;;1.40;;
13807;SDS011;40769;51.512;5.494;2022-10-26T13:23:24;1.45;;;1.05;;
13807;SDS011;40769;51.512;5.494;2022-10-26T13:28:41;2.10;;;1.13;;
13807;SDS011;40769;51.512;5.494;2022-10-26T13:34:03;1.52;;;0.93;;
13807;SDS011;40769;51.512;5.494;2022-10-26T13:36:46;1.58;;;0.95;;
13807;SDS011;40769;51.512;5.494;2022-10-26T13:39:28;2.35;;;0.95;;
13807;SDS011;40769;51.512;5.494;2022-10-26T13:41:57;1.40;;;1.10;;
13807;SDS011;40769;51.512;5.494;2022-10-26T13:44:43;1.52;;;1.13;;
13807;SDS011;40769;51.512;5.494;2022-10-26T13:47:30;1.88;;;1.15;;
13807;SDS011;40769;51.512;5.494;2022-10-26T13:50:15;1.95;;;1.10;;
13807;SDS011;40769;51.512;5.494;2022-10-26T13:53:06;0.95;;;0.88;;
13807;SDS011;40769;51.512;5.494;2022-10-26T13:55:44;1.98;;;1.27;;
13807;SDS011;40769;51.512;5.494;2022-10-26T13:58:18;1.77;;;0.82;;
13807;SDS011;40769;51.512;5.494;2022-10-26T14:03:38;1.20;;;0.98;;
13807;SDS011;40769;51.512;5.494;2022-10-26T14:06:06;1.50;;;1.10;;
13807;SDS011;40769;51.512;5.494;2022-10-26T14:08:41;1.83;;;1.00;;
13807;SDS011;40769;51.512;5.494;2022-10-26T14:11:11;1.13;;;1.02;;
13807;SDS011;40769;51.512;5.494;2022-10-26T14:13:42;1.83;;;0.98;;
13807;SDS011;40769;51.512;5.494;2022-10-26T14:16:08;1.23;;;1.05;;
13807;SDS011;40769;51.512;5.494;2022-10-26T14:18:35;1.33;;;0.80;;
13807;SDS011;40769;51.512;5.494;2022-10-26T14:21:04;1.90;;;0.95;;
13807;SDS011;40769;51.512;5.494;2022-10-26T14:23:55;1.50;;;0.82;;
13807;SDS011;40769;51.512;5.494;2022-10-26T14:26:24;1.25;;;1.00;;
13807;SDS011;40769;51.512;5.494;2022-10-26T14:28:53;1.48;;;0.88;;
13807;SDS011;40769;51.512;5.494;2022-10-26T14:33:53;1.85;;;1.10;;
13807;SDS011;40769;51.512;5.494;2022-10-26T14:36:22;0.88;;;0.77;;
13807;SDS011;40769;51.512;5.494;2022-10-26T14:39:06;1.75;;;0.90;;
13807;SDS011;40769;51.512;5.494;2022-10-26T14:41:40;1.50;;;1.00;;
13807;SDS011;40769;51.512;5.494;2022-10-26T14:44:08;1.35;;;0.90;;
13807;SDS011;40769;51.512;5.494;2022-10-26T14:46:43;1.08;;;0.90;;
13807;SDS011;40769;51.512;5.494;2022-10-26T14:49:15;1.40;;;1.10;;
13807;SDS011;40769;51.512;5.494;2022-10-26T14:51:43;1.90;;;1.02;;
13807;SDS011;40769;51.512;5.494;2022-10-26T14:54:18;1.60;;;1.00;;
13807;SDS011;40769;51.512;5.494;2022-10-26T14:56:44;1.35;;;0.98;;
13807;SDS011;40769;51.512;5.494;2022-10-26T15:07:22;1.95;;;1.20;;
13807;SDS011;40769;51.512;5.494;2022-10-26T15:09:49;3.45;;;1.33;;
13807;SDS011;40769;51.512;5.494;2022-10-26T15:12:49;2.85;;;1.33;;
13807;SDS011;40769;51.512;5.494;2022-10-26T15:17:47;2.50;;;2.25;;
13807;SDS011;40769;51.512;5.494;2022-10-26T15:20:22;4.00;;;1.98;;
13807;SDS011;40769;51.512;5.494;2022-10-26T15:23:11;2.10;;;1.42;;
13807;SDS011;40769;51.512;5.494;2022-10-26T15:25:38;2.75;;;1.50;;
13807;SDS011;40769;51.512;5.494;2022-10-26T15:28:23;3.53;;;1.35;;
13807;SDS011;40769;51.512;5.494;2022-10-26T15:30:57;1.65;;;0.90;;
13807;SDS011;40769;51.512;5.494;2022-10-26T15:33:24;1.70;;;1.17;;
13807;SDS011;40769;51.512;5.494;2022-10-26T15:36:02;2.05;;;1.10;;
13807;SDS011;40769;51.512;5.494;2022-10-26T15:38:41;1.75;;;1.40;;
13807;SDS011;40769;51.512;5.494;2022-10-26T15:41:18;1.85;;;1.17;;
13807;SDS011;40769;51.512;5.494;2022-10-26T15:43:47;1.85;;;1.25;;
13807;SDS011;40769;51.512;5.494;2022-10-26T15:46:13;2.53;;;1.73;;
13807;SDS011;40769;51.512;5.494;2022-10-26T15:48:39;2.42;;;1.90;;
13807;SDS011;40769;51.512;5.494;2022-10-26T15:51:06;3.50;;;1.50;;
13807;SDS011;40769;51.512;5.494;2022-10-26T15:53:36;3.38;;;1.80;;
13807;SDS011;40769;51.512;5.494;2022-10-26T15:56:01;2.70;;;1.63;;
13807;SDS011;40769;51.512;5.494;2022-10-26T15:58:32;1.98;;;1.38;;
13807;SDS011;40769;51.512;5.494;2022-10-26T16:00:58;2.53;;;1.70;;
13807;SDS011;40769;51.512;5.494;2022-10-26T16:03:24;3.35;;;1.65;;
13807;SDS011;40769;51.512;5.494;2022-10-26T16:05:52;2.60;;;1.67;;
13807;SDS011;40769;51.512;5.494;2022-10-26T16:08:25;1.92;;;1.10;;
13807;SDS011;40769;51.512;5.494;2022-10-26T16:10:51;2.92;;;1.50;;
13807;SDS011;40769;51.512;5.494;2022-10-26T16:13:17;3.03;;;2.45;;
13807;SDS011;40769;51.512;5.494;2022-10-26T16:15:43;2.83;;;1.98;;
13807;SDS011;40769;51.512;5.494;2022-10-26T16:18:09;2.88;;;1.88;;
13807;SDS011;40769;51.512;5.494;2022-10-26T16:20:34;2.83;;;2.13;;
13807;SDS011;40769;51.512;5.494;2022-10-26T16:23:00;3.88;;;2.88;;
13807;SDS011;40769;51.512;5.494;2022-10-26T16:25:31;4.50;;;3.75;;
13807;SDS011;40769;51.512;5.494;2022-10-26T16:27:58;3.88;;;2.78;;
13807;SDS011;40769;51.512;5.494;2022-10-26T16:30:24;3.35;;;2.40;;
13807;SDS011;40769;51.512;5.494;2022-10-26T16:32:50;4.28;;;2.45;;
13807;SDS011;40769;51.512;5.494;2022-10-26T16:35:15;3.72;;;2.22;;
13807;SDS011;40769;51.512;5.494;2022-10-26T16:37:41;3.58;;;2.25;;
13807;SDS011;40769;51.512;5.494;2022-10-26T16:40:07;4.72;;;3.22;;
13807;SDS011;40769;51.512;5.494;2022-10-26T16:42:33;4.78;;;3.70;;
13807;SDS011;40769;51.512;5.494;2022-10-26T16:45:00;4.18;;;3.42;;
13807;SDS011;40769;51.512;5.494;2022-10-26T16:47:25;5.90;;;3.72;;
13807;SDS011;40769;51.512;5.494;2022-10-26T16:49:51;3.45;;;2.78;;
13807;SDS011;40769;51.512;5.494;2022-10-26T16:52:17;3.45;;;2.70;;
13807;SDS011;40769;51.512;5.494;2022-10-26T16:54:42;3.45;;;3.08;;
13807;SDS011;40769;51.512;5.494;2022-10-26T16:57:08;4.68;;;3.08;;
13807;SDS011;40769;51.512;5.494;2022-10-26T16:59:34;4.53;;;3.60;;
13807;SDS011;40769;51.512;5.494;2022-10-26T17:02:06;5.82;;;4.47;;
13807;SDS011;40769;51.512;5.494;2022-10-26T17:04:32;3.67;;;3.13;;
13807;SDS011;40769;51.512;5.494;2022-10-26T17:06:58;3.45;;;3.15;;
13807;SDS011;40769;51.512;5.494;2022-10-26T17:09:24;3.90;;;2.70;;
13807;SDS011;40769;51.512;5.494;2022-10-26T17:11:49;5.03;;;3.53;;
13807;SDS011;40769;51.512;5.494;2022-10-26T17:14:15;4.30;;;3.13;;
13807;SDS011;40769;51.512;5.494;2022-10-26T17:16:41;2.53;;;2.33;;
13807;SDS011;40769;51.512;5.494;2022-10-26T17:19:07;4.57;;;2.22;;
13807;SDS011;40769;51.512;5.494;2022-10-26T17:21:34;2.30;;;1.67;;
13807;SDS011;40769;51.512;5.494;2022-10-26T17:24:00;2.28;;;1.90;;
13807;SDS011;40769;51.512;5.494;2022-10-26T17:26:27;2.03;;;1.38;;
13807;SDS011;40769;51.512;5.494;2022-10-26T17:28:53;2.17;;;1.67;;
13807;SDS011;40769;51.512;5.494;2022-10-26T17:31:20;1.85;;;1.50;;
13807;SDS011;40769;51.512;5.494;2022-10-26T17:33:46;2.00;;;1.58;;
13807;SDS011;40769;51.512;5.494;2022-10-26T17:36:15;1.50;;;1.40;;
13807;SDS011;40769;51.512;5.494;2022-10-26T17:38:44;2.33;;;1.80;;
13807;SDS011;40769;51.512;5.494;2022-10-26T17:41:13;2.45;;;1.90;;
13807;SDS011;40769;51.512;5.494;2022-10-26T17:43:40;3.05;;;2.00;;
13807;SDS011;40769;51.512;5.494;2022-10-26T17:46:08;2.00;;;1.73;;
13807;SDS011;40769;51.512;5.494;2022-10-26T17:48:39;2.58;;;1.98;;